sensor_id;sensor_type;location;lat;lon;timestamp;P1;durP1;ratioP1;P2;durP2;ratioP2
11171;SDS011;5642;50.830;12.082;2024-01-10T00:01:05;13.20;;;7.40;;
11171;SDS011;5642;50.830;12.082;2024-01-10T00:03:33;12.13;;;7.57;;
11171;SDS011;5642;50.830;12.082;2024-01-10T00:06:00;11.70;;;7.77;;
11171;SDS011;5642;50.830;12.082;2024-01-10T00:08:27;12.17;;;7.17;;
11171;SDS011;5642;50.830;12.082;2024-01-10T00:10:54;11.03;;;7.20;;
11171;SDS011;5642;50.830;12.082;2024-01-10T00:13:31;14.27;;;7.87;;
11171;SDS011;5642;50.830;12.082;2024-01-10T00:15:59;12.07;;;7.50;;
11171;SDS011;5642;50.830;12.082;2024-01-10T00:18:40;9.80;;;7.17;;
11171;SDS011;5642;50.830;12.082;2024-01-10T00:21:08;10.17;;;6.90;;
11171;SDS011;5642;50.830;12.082;2024-01-10T00:23:36;11.70;;;7.37;;
11171;SDS011;5642;50.830;12.082;2024-01-10T00:26:03;11.50;;;7.30;;
11171;SDS011;5642;50.830;12.082;2024-01-10T00:28:33;13.20;;;7.63;;
11171;SDS011;5642;50.830;12.082;2024-01-10T00:30:59;12.23;;;7.97;;
11171;SDS011;5642;50.830;12.082;2024-01-10T00:33:28;14.47;;;7.90;;
11171;SDS011;5642;50.830;12.082;2024-01-10T00:35:55;12.23;;;7.27;;
11171;SDS011;5642;50.830;12.082;2024-01-10T00:38:27;11.47;;;7.50;;
11171;SDS011;5642;50.830;12.082;2024-01-10T00:41:06;11.70;;;7.27;;
11171;SDS011;5642;50.830;12.082;2024-01-10T00:43:37;12.47;;;7.50;;
11171;SDS011;5642;50.830;12.082;2024-01-10T00:46:07;11.27;;;7.40;;
11171;SDS011;5642;50.830;12.082;2024-01-10T00:48:34;11.57;;;7.53;;
11171;SDS011;5642;50.830;12.082;2024-01-10T00:51:05;11.03;;;7.20;;
11171;SDS011;5642;50.830;12.082;2024-01-10T00:53:38;11.13;;;7.60;;
11171;SDS011;5642;50.830;12.082;2024-01-10T00:56:05;11.73;;;7.73;;
11171;SDS011;5642;50.830;12.082;2024-01-10T00:58:36;11.17;;;7.23;;
11171;SDS011;5642;50.830;12.082;2024-01-10T01:01:02;11.13;;;7.53;;
11171;SDS011;5642;50.830;12.082;2024-01-10T01:03:32;12.57;;;8.00;;
11171;SDS011;5642;50.830;12.082;2024-01-10T01:05:59;11.20;;;7.13;;
11171;SDS011;5642;50.830;12.082;2024-01-10T01:08:28;12.20;;;8.03;;
11171;SDS011;5642;50.830;12.082;2024-01-10T01:10:56;12.60;;;7.63;;
11171;SDS011;5642;50.830;12.082;2024-01-10T01:20:59;10.50;;;6.60;;
11171;SDS011;5642;50.830;12.082;2024-01-10T01:23:31;11.77;;;7.00;;
11171;SDS011;5642;50.830;12.082;2024-01-10T01:25:58;12.20;;;7.30;;
11171;SDS011;5642;50.830;12.082;2024-01-10T01:28:27;13.57;;;7.40;;
11171;SDS011;5642;50.830;12.082;2024-01-10T01:30:54;11.73;;;7.90;;
11171;SDS011;5642;50.830;12.082;2024-01-10T01:36:28;13.40;;;7.87;;
11171;SDS011;5642;50.830;12.082;2024-01-10T01:38:55;12.70;;;8.10;;
11171;SDS011;5642;50.830;12.082;2024-01-10T01:41:25;10.47;;;6.93;;
11171;SDS011;5642;50.830;12.082;2024-01-10T01:43:59;12.33;;;7.40;;
11171;SDS011;5642;50.830;12.082;2024-01-10T01:46:26;10.10;;;6.97;;
11171;SDS011;5642;50.830;12.082;2024-01-10T01:48:56;10.70;;;7.13;;
11171;SDS011;5642;50.830;12.082;2024-01-10T01:51:23;12.10;;;7.57;;
11171;SDS011;5642;50.830;12.082;2024-01-10T01:53:53;11.40;;;7.57;;
11171;SDS011;5642;50.830;12.082;2024-01-10T01:56:20;12.20;;;7.37;;
11171;SDS011;5642;50.830;12.082;2024-01-10T01:58:52;12.83;;;7.87;;
11171;SDS011;5642;50.830;12.082;2024-01-10T02:09:17;10.30;;;7.07;;
11171;SDS011;5642;50.830;12.082;2024-01-10T02:11:47;9.83;;;6.60;;
11171;SDS011;5642;50.830;12.082;2024-01-10T02:14:16;12.70;;;7.50;;
11171;SDS011;5642;50.830;12.082;2024-01-10T02:16:46;10.97;;;7.43;;
11171;SDS011;5642;50.830;12.082;2024-01-10T02:19:19;10.67;;;7.07;;
11171;SDS011;5642;50.830;12.082;2024-01-10T02:21:55;11.70;;;7.70;;
11171;SDS011;5642;50.830;12.082;2024-01-10T02:24:26;13.30;;;7.47;;
11171;SDS011;5642;50.830;12.082;2024-01-10T02:26:53;14.67;;;8.30;;
11171;SDS011;5642;50.830;12.082;2024-01-10T02:29:22;10.47;;;7.37;;
11171;SDS011;5642;50.830;12.082;2024-01-10T02:31:50;12.73;;;7.53;;
11171;SDS011;5642;50.830;12.082;2024-01-10T02:34:19;12.43;;;7.73;;
11171;SDS011;5642;50.830;12.082;2024-01-10T02:36:47;11.93;;;7.53;;
11171;SDS011;5642;50.830;12.082;2024-01-10T02:39:16;11.80;;;7.87;;
11171;SDS011;5642;50.830;12.082;2024-01-10T02:41:43;14.10;;;7.50;;
11171;SDS011;5642;50.830;12.082;2024-01-10T02:44:15;10.10;;;6.70;;
11171;SDS011;5642;50.830;12.082;2024-01-10T02:46:41;12.37;;;7.57;;
11171;SDS011;5642;50.830;12.082;2024-01-10T02:49:10;13.07;;;7.67;;
11171;SDS011;5642;50.830;12.082;2024-01-10T02:51:37;11.43;;;6.97;;
11171;SDS011;5642;50.830;12.082;2024-01-10T02:54:06;10.73;;;6.87;;
11171;SDS011;5642;50.830;12.082;2024-01-10T02:56:33;10.40;;;7.47;;
11171;SDS011;5642;50.830;12.082;2024-01-10T02:59:00;10.73;;;7.20;;
11171;SDS011;5642;50.830;12.082;2024-01-10T03:01:26;11.40;;;7.33;;
11171;SDS011;5642;50.830;12.082;2024-01-10T03:03:52;9.60;;;6.93;;
11171;SDS011;5642;50.830;12.082;2024-01-10T03:06:21;10.07;;;6.83;;
11171;SDS011;5642;50.830;12.082;2024-01-10T03:08:47;11.67;;;8.00;;
11171;SDS011;5642;50.830;12.082;2024-01-10T03:11:18;13.33;;;8.20;;
11171;SDS011;5642;50.830;12.082;2024-01-10T03:13:46;11.43;;;6.73;;
11171;SDS011;5642;50.830;12.082;2024-01-10T03:16:15;12.37;;;7.30;;
11171;SDS011;5642;50.830;12.082;2024-01-10T03:18:41;13.13;;;8.03;;
11171;SDS011;5642;50.830;12.082;2024-01-10T03:21:11;11.90;;;7.50;;
11171;SDS011;5642;50.830;12.082;2024-01-10T03:23:39;10.30;;;6.93;;
11171;SDS011;5642;50.830;12.082;2024-01-10T03:26:09;10.57;;;6.97;;
11171;SDS011;5642;50.830;12.082;2024-01-10T03:28:36;11.57;;;7.30;;
11171;SDS011;5642;50.830;12.082;2024-01-10T03:31:04;11.90;;;7.17;;
11171;SDS011;5642;50.830;12.082;2024-01-10T03:33:32;11.13;;;7.23;;
11171;SDS011;5642;50.830;12.082;2024-01-10T03:36:05;12.23;;;7.70;;
11171;SDS011;5642;50.830;12.082;2024-01-10T03:38:36;10.80;;;6.97;;
11171;SDS011;5642;50.830;12.082;2024-01-10T03:41:17;11.13;;;7.03;;
11171;SDS011;5642;50.830;12.082;2024-01-10T03:43:45;11.47;;;7.43;;
11171;SDS011;5642;50.830;12.082;2024-01-10T03:46:16;10.70;;;6.53;;
11171;SDS011;5642;50.830;12.082;2024-01-10T03:48:43;12.07;;;7.40;;
11171;SDS011;5642;50.830;12.082;2024-01-10T03:51:16;11.43;;;7.43;;
11171;SDS011;5642;50.830;12.082;2024-01-10T03:53:49;10.50;;;6.97;;
11171;SDS011;5642;50.830;12.082;2024-01-10T03:56:19;11.17;;;7.00;;
11171;SDS011;5642;50.830;12.082;2024-01-10T03:58:46;11.07;;;7.03;;
11171;SDS011;5642;50.830;12.082;2024-01-10T04:01:21;11.23;;;7.23;;
11171;SDS011;5642;50.830;12.082;2024-01-10T04:03:50;12.00;;;7.47;;
11171;SDS011;5642;50.830;12.082;2024-01-10T04:06:16;13.17;;;7.37;;
11171;SDS011;5642;50.830;12.082;2024-01-10T04:08:43;11.43;;;7.73;;
11171;SDS011;5642;50.830;12.082;2024-01-10T04:11:11;9.83;;;6.70;;
11171;SDS011;5642;50.830;12.082;2024-01-10T04:13:38;12.50;;;7.87;;
11171;SDS011;5642;50.830;12.082;2024-01-10T04:16:08;12.80;;;7.63;;
11171;SDS011;5642;50.830;12.082;2024-01-10T04:18:35;11.60;;;7.37;;
11171;SDS011;5642;50.830;12.082;2024-01-10T04:21:05;11.20;;;7.63;;
11171;SDS011;5642;50.830;12.082;2024-01-10T04:23:32;11.37;;;7.10;;
11171;SDS011;5642;50.830;12.082;2024-01-10T04:26:02;10.73;;;7.40;;
11171;SDS011;5642;50.830;12.082;2024-01-10T04:28:40;11.33;;;7.73;;
11171;SDS011;5642;50.830;12.082;2024-01-10T04:31:11;10.47;;;6.70;;
11171;SDS011;5642;50.830;12.082;2024-01-10T04:33:38;11.83;;;7.47;;
11171;SDS011;5642;50.830;12.082;2024-01-10T04:36:06;10.33;;;7.23;;
11171;SDS011;5642;50.830;12.082;2024-01-10T04:38:34;10.17;;;6.90;;
11171;SDS011;5642;50.830;12.082;2024-01-10T04:41:04;11.03;;;7.53;;
11171;SDS011;5642;50.830;12.082;2024-01-10T04:43:31;10.73;;;6.80;;
11171;SDS011;5642;50.830;12.082;2024-01-10T04:46:05;10.70;;;7.03;;
11171;SDS011;5642;50.830;12.082;2024-01-10T04:48:54;9.70;;;6.60;;
11171;SDS011;5642;50.830;12.082;2024-01-10T04:51:21;11.03;;;7.37;;
11171;SDS011;5642;50.830;12.082;2024-01-10T04:53:51;10.67;;;7.33;;
11171;SDS011;5642;50.830;12.082;2024-01-10T04:56:18;11.10;;;6.97;;
11171;SDS011;5642;50.830;12.082;2024-01-10T04:58:48;12.23;;;7.63;;
11171;SDS011;5642;50.830;12.082;2024-01-10T05:01:15;10.10;;;6.37;;
11171;SDS011;5642;50.830;12.082;2024-01-10T05:03:45;12.37;;;7.30;;
11171;SDS011;5642;50.830;12.082;2024-01-10T05:06:12;10.27;;;6.87;;
11171;SDS011;5642;50.830;12.082;2024-01-10T05:08:45;12.83;;;7.27;;
11171;SDS011;5642;50.830;12.082;2024-01-10T05:11:16;11.00;;;7.30;;
11171;SDS011;5642;50.830;12.082;2024-01-10T05:13:44;12.30;;;7.30;;
11171;SDS011;5642;50.830;12.082;2024-01-10T05:16:13;11.50;;;7.87;;
11171;SDS011;5642;50.830;12.082;2024-01-10T05:18:41;11.67;;;7.73;;
11171;SDS011;5642;50.830;12.082;2024-01-10T05:21:09;10.57;;;7.23;;
11171;SDS011;5642;50.830;12.082;2024-01-10T05:23:36;10.80;;;7.53;;
11171;SDS011;5642;50.830;12.082;2024-01-10T05:26:07;10.53;;;7.23;;
11171;SDS011;5642;50.830;12.082;2024-01-10T05:28:34;11.23;;;7.30;;
11171;SDS011;5642;50.830;12.082;2024-01-10T05:31:03;11.27;;;7.17;;
11171;SDS011;5642;50.830;12.082;2024-01-10T05:33:30;11.27;;;7.17;;
11171;SDS011;5642;50.830;12.082;2024-01-10T05:36:00;11.13;;;7.37;;
11171;SDS011;5642;50.830;12.082;2024-01-10T05:38:28;11.10;;;7.30;;
11171;SDS011;5642;50.830;12.082;2024-01-10T05:40:58;10.53;;;7.37;;
11171;SDS011;5642;50.830;12.082;2024-01-10T05:43:25;12.23;;;8.13;;
11171;SDS011;5642;50.830;12.082;2024-01-10T05:45:55;11.33;;;7.23;;
11171;SDS011;5642;50.830;12.082;2024-01-10T05:48:31;9.93;;;7.40;;
11171;SDS011;5642;50.830;12.082;2024-01-10T05:51:01;13.00;;;7.40;;
11171;SDS011;5642;50.830;12.082;2024-01-10T05:53:28;11.43;;;7.43;;
11171;SDS011;5642;50.830;12.082;2024-01-10T05:55:58;11.40;;;7.40;;
11171;SDS011;5642;50.830;12.082;2024-01-10T05:58:25;10.37;;;7.17;;
11171;SDS011;5642;50.830;12.082;2024-01-10T06:00:57;12.00;;;7.77;;
11171;SDS011;5642;50.830;12.082;2024-01-10T06:03:24;12.57;;;7.53;;
11171;SDS011;5642;50.830;12.082;2024-01-10T06:06:01;11.97;;;7.50;;
11171;SDS011;5642;50.830;12.082;2024-01-10T06:08:32;11.10;;;7.73;;
11171;SDS011;5642;50.830;12.082;2024-01-10T06:11:05;11.83;;;7.83;;
11171;SDS011;5642;50.830;12.082;2024-01-10T06:13:35;10.70;;;7.27;;
11171;SDS011;5642;50.830;12.082;2024-01-10T06:16:03;11.23;;;7.53;;
11171;SDS011;5642;50.830;12.082;2024-01-10T06:18:32;11.90;;;7.67;;
11171;SDS011;5642;50.830;12.082;2024-01-10T06:20:58;12.33;;;7.93;;
11171;SDS011;5642;50.830;12.082;2024-01-10T06:23:29;11.30;;;7.60;;
11171;SDS011;5642;50.830;12.082;2024-01-10T06:25:56;9.43;;;7.40;;
11171;SDS011;5642;50.830;12.082;2024-01-10T06:28:23;9.67;;;6.80;;
11171;SDS011;5642;50.830;12.082;2024-01-10T06:30:50;12.47;;;7.87;;
11171;SDS011;5642;50.830;12.082;2024-01-10T06:33:32;11.33;;;7.70;;
11171;SDS011;5642;50.830;12.082;2024-01-10T06:35:59;12.00;;;7.10;;
11171;SDS011;5642;50.830;12.082;2024-01-10T06:38:28;12.77;;;7.77;;
11171;SDS011;5642;50.830;12.082;2024-01-10T06:40:56;10.27;;;7.57;;
11171;SDS011;5642;50.830;12.082;2024-01-10T06:43:25;12.37;;;7.80;;
11171;SDS011;5642;50.830;12.082;2024-01-10T06:45:53;12.67;;;7.60;;
11171;SDS011;5642;50.830;12.082;2024-01-10T06:48:27;11.50;;;7.73;;
11171;SDS011;5642;50.830;12.082;2024-01-10T06:50:57;11.10;;;7.37;;
11171;SDS011;5642;50.830;12.082;2024-01-10T06:53:25;10.50;;;7.00;;
11171;SDS011;5642;50.830;12.082;2024-01-10T06:55:53;11.77;;;7.13;;
11171;SDS011;5642;50.830;12.082;2024-01-10T06:58:22;12.10;;;7.87;;
11171;SDS011;5642;50.830;12.082;2024-01-10T07:00:51;11.80;;;7.13;;
11171;SDS011;5642;50.830;12.082;2024-01-10T07:03:17;11.80;;;7.67;;
11171;SDS011;5642;50.830;12.082;2024-01-10T07:05:47;11.77;;;8.10;;
11171;SDS011;5642;50.830;12.082;2024-01-10T07:08:14;12.80;;;8.00;;
11171;SDS011;5642;50.830;12.082;2024-01-10T07:10:43;11.07;;;7.90;;
11171;SDS011;5642;50.830;12.082;2024-01-10T07:13:10;11.57;;;7.47;;
11171;SDS011;5642;50.830;12.082;2024-01-10T07:15:41;11.60;;;7.83;;
11171;SDS011;5642;50.830;12.082;2024-01-10T07:18:09;11.43;;;7.73;;
11171;SDS011;5642;50.830;12.082;2024-01-10T07:20:37;10.63;;;7.53;;
11171;SDS011;5642;50.830;12.082;2024-01-10T07:23:03;11.93;;;7.83;;
11171;SDS011;5642;50.830;12.082;2024-01-10T07:25:30;11.07;;;7.53;;
11171;SDS011;5642;50.830;12.082;2024-01-10T07:27:57;12.50;;;7.37;;
11171;SDS011;5642;50.830;12.082;2024-01-10T07:30:26;13.73;;;8.87;;
11171;SDS011;5642;50.830;12.082;2024-01-10T07:32:56;12.70;;;9.00;;
11171;SDS011;5642;50.830;12.082;2024-01-10T07:35:24;13.17;;;8.40;;
11171;SDS011;5642;50.830;12.082;2024-01-10T07:37:54;14.27;;;9.27;;
11171;SDS011;5642;50.830;12.082;2024-01-10T07:40:25;15.07;;;9.20;;
11171;SDS011;5642;50.830;12.082;2024-01-10T07:42:52;15.27;;;9.43;;
11171;SDS011;5642;50.830;12.082;2024-01-10T07:45:22;14.77;;;9.33;;
11171;SDS011;5642;50.830;12.082;2024-01-10T07:47:49;14.37;;;8.87;;
11171;SDS011;5642;50.830;12.082;2024-01-10T07:50:20;16.10;;;9.87;;
11171;SDS011;5642;50.830;12.082;2024-01-10T07:52:54;15.30;;;9.43;;
11171;SDS011;5642;50.830;12.082;2024-01-10T07:55:22;15.47;;;9.43;;
11171;SDS011;5642;50.830;12.082;2024-01-10T07:57:52;13.40;;;8.53;;
11171;SDS011;5642;50.830;12.082;2024-01-10T08:00:22;13.87;;;8.70;;
11171;SDS011;5642;50.830;12.082;2024-01-10T08:02:51;13.77;;;9.17;;
11171;SDS011;5642;50.830;12.082;2024-01-10T08:05:20;14.60;;;9.27;;
11171;SDS011;5642;50.830;12.082;2024-01-10T08:07:48;14.47;;;9.30;;
11171;SDS011;5642;50.830;12.082;2024-01-10T08:10:17;14.10;;;9.20;;
11171;SDS011;5642;50.830;12.082;2024-01-10T08:12:51;12.87;;;8.50;;
11171;SDS011;5642;50.830;12.082;2024-01-10T08:15:28;14.43;;;9.27;;
11171;SDS011;5642;50.830;12.082;2024-01-10T08:17:58;15.50;;;9.83;;
11171;SDS011;5642;50.830;12.082;2024-01-10T08:20:31;16.13;;;9.40;;
11171;SDS011;5642;50.830;12.082;2024-01-10T08:23:04;14.93;;;9.27;;
11171;SDS011;5642;50.830;12.082;2024-01-10T08:25:35;15.47;;;9.80;;
11171;SDS011;5642;50.830;12.082;2024-01-10T08:28:08;14.90;;;10.00;;
11171;SDS011;5642;50.830;12.082;2024-01-10T08:30:45;15.80;;;8.87;;
11171;SDS011;5642;50.830;12.082;2024-01-10T08:33:30;15.67;;;10.23;;
11171;SDS011;5642;50.830;12.082;2024-01-10T08:36:03;20.13;;;12.07;;
11171;SDS011;5642;50.830;12.082;2024-01-10T08:38:40;17.93;;;11.27;;
11171;SDS011;5642;50.830;12.082;2024-01-10T08:41:11;15.93;;;10.40;;
11171;SDS011;5642;50.830;12.082;2024-01-10T08:43:43;17.37;;;11.13;;
11171;SDS011;5642;50.830;12.082;2024-01-10T08:46:12;15.97;;;10.53;;
11171;SDS011;5642;50.830;12.082;2024-01-10T08:48:41;16.30;;;10.67;;
11171;SDS011;5642;50.830;12.082;2024-01-10T08:51:10;16.73;;;10.63;;
11171;SDS011;5642;50.830;12.082;2024-01-10T08:53:39;19.30;;;11.63;;
11171;SDS011;5642;50.830;12.082;2024-01-10T08:56:09;16.17;;;10.77;;
11171;SDS011;5642;50.830;12.082;2024-01-10T08:58:45;15.40;;;10.57;;
11171;SDS011;5642;50.830;12.082;2024-01-10T09:01:16;16.77;;;10.83;;
11171;SDS011;5642;50.830;12.082;2024-01-10T09:03:54;14.83;;;10.50;;
11171;SDS011;5642;50.830;12.082;2024-01-10T09:06:24;17.33;;;11.67;;
11171;SDS011;5642;50.830;12.082;2024-01-10T09:09:03;17.50;;;10.93;;
11171;SDS011;5642;50.830;12.082;2024-01-10T09:11:39;17.57;;;11.50;;
11171;SDS011;5642;50.830;12.082;2024-01-10T09:14:23;16.30;;;10.83;;
11171;SDS011;5642;50.830;12.082;2024-01-10T09:20:52;13.47;;;9.17;;
11171;SDS011;5642;50.830;12.082;2024-01-10T09:23:28;16.17;;;10.43;;
11171;SDS011;5642;50.830;12.082;2024-01-10T09:25:57;16.43;;;10.70;;
11171;SDS011;5642;50.830;12.082;2024-01-10T09:28:37;15.90;;;10.77;;
11171;SDS011;5642;50.830;12.082;2024-01-10T09:31:10;17.57;;;11.67;;
11171;SDS011;5642;50.830;12.082;2024-01-10T09:34:07;14.47;;;9.93;;
11171;SDS011;5642;50.830;12.082;2024-01-10T09:36:38;16.73;;;10.67;;
11171;SDS011;5642;50.830;12.082;2024-01-10T09:39:15;16.17;;;10.87;;
11171;SDS011;5642;50.830;12.082;2024-01-10T09:41:48;16.83;;;10.77;;
11171;SDS011;5642;50.830;12.082;2024-01-10T09:44:21;17.53;;;11.60;;
11171;SDS011;5642;50.830;12.082;2024-01-10T09:46:59;16.50;;;10.70;;
11171;SDS011;5642;50.830;12.082;2024-01-10T09:49:29;16.37;;;11.23;;
11171;SDS011;5642;50.830;12.082;2024-01-10T09:52:03;18.30;;;12.00;;
11171;SDS011;5642;50.830;12.082;2024-01-10T09:54:48;16.80;;;11.67;;
11171;SDS011;5642;50.830;12.082;2024-01-10T09:57:45;17.30;;;11.40;;
11171;SDS011;5642;50.830;12.082;2024-01-10T10:00:25;17.10;;;11.07;;
11171;SDS011;5642;50.830;12.082;2024-01-10T10:02:59;16.07;;;10.63;;
11171;SDS011;5642;50.830;12.082;2024-01-10T10:05:41;17.03;;;10.93;;
11171;SDS011;5642;50.830;12.082;2024-01-10T10:08:17;17.60;;;11.50;;
11171;SDS011;5642;50.830;12.082;2024-01-10T10:10:49;15.50;;;10.60;;
11171;SDS011;5642;50.830;12.082;2024-01-10T10:13:28;15.67;;;11.03;;
11171;SDS011;5642;50.830;12.082;2024-01-10T10:16:02;16.50;;;11.57;;
11171;SDS011;5642;50.830;12.082;2024-01-10T10:18:43;17.03;;;11.30;;
11171;SDS011;5642;50.830;12.082;2024-01-10T10:21:26;18.20;;;11.20;;
11171;SDS011;5642;50.830;12.082;2024-01-10T10:24:00;16.70;;;10.77;;
11171;SDS011;5642;50.830;12.082;2024-01-10T10:26:44;16.43;;;11.20;;
11171;SDS011;5642;50.830;12.082;2024-01-10T10:29:12;16.10;;;11.37;;
11171;SDS011;5642;50.830;12.082;2024-01-10T10:31:54;16.63;;;11.13;;
11171;SDS011;5642;50.830;12.082;2024-01-10T10:34:30;18.07;;;12.00;;
11171;SDS011;5642;50.830;12.082;2024-01-10T10:37:06;16.93;;;11.13;;
11171;SDS011;5642;50.830;12.082;2024-01-10T10:39:36;16.53;;;10.80;;
11171;SDS011;5642;50.830;12.082;2024-01-10T10:42:16;17.47;;;11.37;;
11171;SDS011;5642;50.830;12.082;2024-01-10T10:44:55;15.50;;;10.63;;
11171;SDS011;5642;50.830;12.082;2024-01-10T10:47:36;14.95;;;10.27;;
11171;SDS011;5642;50.830;12.082;2024-01-10T10:50:33;13.18;;;9.30;;
11171;SDS011;5642;50.830;12.082;2024-01-10T10:53:22;12.98;;;9.38;;
11171;SDS011;5642;50.830;12.082;2024-01-10T10:56:09;12.43;;;9.50;;
11171;SDS011;5642;50.830;12.082;2024-01-10T10:58:39;13.90;;;10.07;;
11171;SDS011;5642;50.830;12.082;2024-01-10T11:01:10;12.50;;;9.38;;
11171;SDS011;5642;50.830;12.082;2024-01-10T11:03:48;13.45;;;10.50;;
11171;SDS011;5642;50.830;12.082;2024-01-10T11:06:17;13.38;;;10.63;;
11171;SDS011;5642;50.830;12.082;2024-01-10T11:08:59;12.95;;;10.13;;
11171;SDS011;5642;50.830;12.082;2024-01-10T11:17:40;14.00;;;10.38;;
11171;SDS011;5642;50.830;12.082;2024-01-10T11:26:13;14.50;;;11.35;;
11171;SDS011;5642;50.830;12.082;2024-01-10T11:28:43;14.65;;;11.80;;
11171;SDS011;5642;50.830;12.082;2024-01-10T11:31:12;15.18;;;11.48;;
11171;SDS011;5642;50.830;12.082;2024-01-10T11:33:49;14.48;;;11.25;;
11171;SDS011;5642;50.830;12.082;2024-01-10T11:36:18;15.43;;;12.07;;
11171;SDS011;5642;50.830;12.082;2024-01-10T11:41:26;15.68;;;12.38;;
11171;SDS011;5642;50.830;12.082;2024-01-10T11:49:11;16.77;;;12.25;;
11171;SDS011;5642;50.830;12.082;2024-01-10T11:51:49;16.25;;;12.85;;
11171;SDS011;5642;50.830;12.082;2024-01-10T11:54:37;17.63;;;12.70;;
11171;SDS011;5642;50.830;12.082;2024-01-10T11:59:45;18.73;;;12.85;;
11171;SDS011;5642;50.830;12.082;2024-01-10T12:02:13;17.13;;;12.93;;
11171;SDS011;5642;50.830;12.082;2024-01-10T12:04:45;18.17;;;12.85;;
11171;SDS011;5642;50.830;12.082;2024-01-10T12:07:18;18.52;;;13.15;;
11171;SDS011;5642;50.830;12.082;2024-01-10T12:09:50;19.77;;;13.85;;
11171;SDS011;5642;50.830;12.082;2024-01-10T12:12:16;20.40;;;14.48;;
11171;SDS011;5642;50.830;12.082;2024-01-10T12:15:08;19.45;;;13.82;;
11171;SDS011;5642;50.830;12.082;2024-01-10T12:17:36;20.50;;;14.73;;
11171;SDS011;5642;50.830;12.082;2024-01-10T12:20:11;22.33;;;14.88;;
11171;SDS011;5642;50.830;12.082;2024-01-10T12:22:53;20.83;;;14.52;;
11171;SDS011;5642;50.830;12.082;2024-01-10T12:25:21;19.83;;;13.98;;
11171;SDS011;5642;50.830;12.082;2024-01-10T12:28:07;20.98;;;14.15;;
11171;SDS011;5642;50.830;12.082;2024-01-10T12:30:44;20.90;;;14.60;;
11171;SDS011;5642;50.830;12.082;2024-01-10T12:33:55;19.00;;;13.82;;
11171;SDS011;5642;50.830;12.082;2024-01-10T12:36:27;20.35;;;13.07;;
11171;SDS011;5642;50.830;12.082;2024-01-10T12:39:04;21.50;;;14.02;;
11171;SDS011;5642;50.830;12.082;2024-01-10T12:41:40;19.27;;;13.73;;
11171;SDS011;5642;50.830;12.082;2024-01-10T12:44:13;19.37;;;13.30;;
11171;SDS011;5642;50.830;12.082;2024-01-10T12:46:50;18.77;;;13.25;;
11171;SDS011;5642;50.830;12.082;2024-01-10T12:49:20;18.65;;;13.02;;
11171;SDS011;5642;50.830;12.082;2024-01-10T12:52:19;17.42;;;11.60;;
11171;SDS011;5642;50.830;12.082;2024-01-10T12:55:00;15.43;;;10.97;;
11171;SDS011;5642;50.830;12.082;2024-01-10T12:57:35;17.93;;;11.80;;
11171;SDS011;5642;50.830;12.082;2024-01-10T13:03:17;15.80;;;10.80;;
11171;SDS011;5642;50.830;12.082;2024-01-10T13:05:53;16.70;;;11.37;;
11171;SDS011;5642;50.830;12.082;2024-01-10T13:08:28;15.17;;;11.20;;
11171;SDS011;5642;50.830;12.082;2024-01-10T13:11:52;15.43;;;10.77;;
11171;SDS011;5642;50.830;12.082;2024-01-10T13:14:45;15.60;;;10.53;;
11171;SDS011;5642;50.830;12.082;2024-01-10T13:17:14;15.27;;;10.20;;
11171;SDS011;5642;50.830;12.082;2024-01-10T13:19:53;14.20;;;10.60;;
11171;SDS011;5642;50.830;12.082;2024-01-10T13:22:39;16.30;;;11.20;;
11171;SDS011;5642;50.830;12.082;2024-01-10T13:25:41;15.63;;;10.77;;
11171;SDS011;5642;50.830;12.082;2024-01-10T13:28:15;14.90;;;10.90;;
11171;SDS011;5642;50.830;12.082;2024-01-10T13:31:09;14.67;;;10.30;;
11171;SDS011;5642;50.830;12.082;2024-01-10T13:33:49;14.87;;;10.83;;
11171;SDS011;5642;50.830;12.082;2024-01-10T13:36:21;15.47;;;11.07;;
11171;SDS011;5642;50.830;12.082;2024-01-10T13:38:56;16.50;;;11.40;;
11171;SDS011;5642;50.830;12.082;2024-01-10T13:41:33;17.37;;;12.03;;
11171;SDS011;5642;50.830;12.082;2024-01-10T13:44:09;16.40;;;11.93;;
11171;SDS011;5642;50.830;12.082;2024-01-10T13:46:50;17.33;;;11.93;;
11171;SDS011;5642;50.830;12.082;2024-01-10T13:49:23;15.90;;;11.63;;
11171;SDS011;5642;50.830;12.082;2024-01-10T13:51:58;15.30;;;11.27;;
11171;SDS011;5642;50.830;12.082;2024-01-10T13:54:31;17.20;;;11.60;;
11171;SDS011;5642;50.830;12.082;2024-01-10T13:57:07;17.33;;;12.40;;
11171;SDS011;5642;50.830;12.082;2024-01-10T13:59:52;13.70;;;10.30;;
11171;SDS011;5642;50.830;12.082;2024-01-10T14:02:46;16.00;;;10.50;;
11171;SDS011;5642;50.830;12.082;2024-01-10T14:05:19;14.50;;;10.57;;
11171;SDS011;5642;50.830;12.082;2024-01-10T14:07:57;15.80;;;10.30;;
11171;SDS011;5642;50.830;12.082;2024-01-10T14:10:36;13.77;;;10.17;;
11171;SDS011;5642;50.830;12.082;2024-01-10T14:13:24;16.63;;;10.83;;
11171;SDS011;5642;50.830;12.082;2024-01-10T14:15:55;14.20;;;10.30;;
11171;SDS011;5642;50.830;12.082;2024-01-10T14:18:25;15.40;;;11.00;;
11171;SDS011;5642;50.830;12.082;2024-01-10T14:20:53;15.63;;;10.80;;
11171;SDS011;5642;50.830;12.082;2024-01-10T14:23:24;16.20;;;10.93;;
11171;SDS011;5642;50.830;12.082;2024-01-10T14:26:00;16.57;;;11.60;;
11171;SDS011;5642;50.830;12.082;2024-01-10T14:28:34;14.53;;;11.10;;
11171;SDS011;5642;50.830;12.082;2024-01-10T14:31:04;15.80;;;11.00;;
11171;SDS011;5642;50.830;12.082;2024-01-10T14:34:04;17.17;;;11.47;;
11171;SDS011;5642;50.830;12.082;2024-01-10T14:36:37;15.70;;;11.23;;
11171;SDS011;5642;50.830;12.082;2024-01-10T14:39:06;16.00;;;11.37;;
11171;SDS011;5642;50.830;12.082;2024-01-10T14:41:39;14.40;;;11.00;;
11171;SDS011;5642;50.830;12.082;2024-01-10T14:44:09;15.17;;;10.80;;
11171;SDS011;5642;50.830;12.082;2024-01-10T14:46:42;15.27;;;11.07;;
11171;SDS011;5642;50.830;12.082;2024-01-10T14:51:55;16.03;;;11.20;;
11171;SDS011;5642;50.830;12.082;2024-01-10T14:54:26;15.83;;;10.87;;
11171;SDS011;5642;50.830;12.082;2024-01-10T14:57:10;15.63;;;11.07;;
11171;SDS011;5642;50.830;12.082;2024-01-10T14:59:39;14.77;;;10.93;;
11171;SDS011;5642;50.830;12.082;2024-01-10T15:02:07;15.57;;;10.87;;
11171;SDS011;5642;50.830;12.082;2024-01-10T15:04:41;13.57;;;10.30;;
11171;SDS011;5642;50.830;12.082;2024-01-10T15:07:13;13.93;;;9.93;;
11171;SDS011;5642;50.830;12.082;2024-01-10T15:09:43;14.00;;;10.57;;
11171;SDS011;5642;50.830;12.082;2024-01-10T15:12:18;13.80;;;10.47;;
11171;SDS011;5642;50.830;12.082;2024-01-10T15:14:49;13.97;;;10.53;;
11171;SDS011;5642;50.830;12.082;2024-01-10T15:17:21;14.50;;;10.27;;
11171;SDS011;5642;50.830;12.082;2024-01-10T15:19:58;14.33;;;10.53;;
11171;SDS011;5642;50.830;12.082;2024-01-10T15:22:35;15.97;;;11.10;;
11171;SDS011;5642;50.830;12.082;2024-01-10T15:25:11;13.63;;;10.17;;
11171;SDS011;5642;50.830;12.082;2024-01-10T15:27:57;14.27;;;10.40;;
11171;SDS011;5642;50.830;12.082;2024-01-10T15:30:29;14.77;;;10.70;;
11171;SDS011;5642;50.830;12.082;2024-01-10T15:33:03;16.30;;;10.97;;
11171;SDS011;5642;50.830;12.082;2024-01-10T15:35:49;15.60;;;10.97;;
11171;SDS011;5642;50.830;12.082;2024-01-10T15:38:31;18.40;;;10.83;;
11171;SDS011;5642;50.830;12.082;2024-01-10T15:41:13;14.10;;;10.17;;
11171;SDS011;5642;50.830;12.082;2024-01-10T15:44:03;15.20;;;10.40;;
11171;SDS011;5642;50.830;12.082;2024-01-10T15:46:43;15.23;;;10.10;;
11171;SDS011;5642;50.830;12.082;2024-01-10T15:49:15;14.87;;;10.00;;
11171;SDS011;5642;50.830;12.082;2024-01-10T15:51:47;15.07;;;10.87;;